Time;durP1;ratioP1;P1;durP2;ratioP2;P2;SDS_P1;SDS_P2;PMS_P1;PMS_P2;Temp;Humidity;BMP_temperature;BMP_pressure;BME280_temperature;BME280_humidity;BME280_pressure;Samples;Min_cycle;Max_cycle;Signal;HPM_P1;HPM_P2
2021/09/29 00:02:04;;;;;;;6.80;6.10;;;16.10;99.90;;;;;;5053417;28;20718;-59
2021/09/29 00:04:30;;;;;;;6.03;5.43;;;16.10;99.90;;;;;;5054462;28;20388;-59
2021/09/29 00:06:55;;;;;;;7.37;6.63;;;16.20;99.90;;;;;;5053913;28;20207;-57
2021/09/29 00:09:21;;;;;;;5.73;5.33;;;16.20;99.90;;;;;;5054168;28;20222;-58
2021/09/29 00:11:47;;;;;;;6.77;6.03;;;16.10;99.90;;;;;;5048089;28;20198;-58
2021/09/29 00:14:12;;;;;;;6.60;6.00;;;16.20;99.90;;;;;;5033616;28;20202;-58
2021/09/29 00:16:38;;;;;;;7.20;6.50;;;16.20;99.90;;;;;;5034182;28;20250;-59
2021/09/29 00:19:04;;;;;;;6.37;5.77;;;16.20;99.90;;;;;;5033602;28;20202;-60
2021/09/29 00:21:29;;;;;;;6.27;5.77;;;16.20;99.90;;;;;;5033681;28;20457;-59
2021/09/29 00:23:55;;;;;;;6.33;5.73;;;16.20;99.90;;;;;;5034164;28;20182;-59
2021/09/29 00:26:21;;;;;;;7.73;6.40;;;16.20;99.90;;;;;;5034654;28;20171;-58
2021/09/29 00:28:46;;;;;;;6.40;5.80;;;16.20;99.90;;;;;;5046965;28;20271;-56
2021/09/29 00:31:25;;;;;;;8.17;7.47;;;16.20;99.90;;;;;;5053650;28;20188;-59
2021/09/29 00:33:58;;;;;;;6.60;5.30;;;16.20;99.90;;;;;;5053593;28;20200;-59
2021/09/29 00:36:24;;;;;;;6.80;6.20;;;16.10;99.90;;;;;;5054051;28;20384;-59
2021/09/29 00:38:49;;;;;;;6.63;5.70;;;16.20;99.90;;;;;;5053714;28;20466;-58
2021/09/29 00:41:15;;;;;;;7.10;6.50;;;16.00;99.90;;;;;;5053477;28;20839;-59
2021/09/29 00:43:40;;;;;;;8.37;7.50;;;16.00;99.90;;;;;;5053054;28;20189;-59
2021/09/29 00:46:06;;;;;;;8.03;7.20;;;15.80;99.90;;;;;;5053576;28;20169;-55
2021/09/29 00:48:31;;;;;;;7.63;6.83;;;15.80;99.90;;;;;;5053203;28;20569;-58
2021/09/29 00:50:58;;;;;;;10.20;7.77;;;15.80;99.90;;;;;;5053309;28;20175;-59
2021/09/29 00:53:24;;;;;;;10.60;6.87;;;15.90;99.90;;;;;;5053725;28;20275;-57
2021/09/29 00:55:49;;;;;;;8.50;7.70;;;15.90;99.90;;;;;;5052371;28;20555;-58
2021/09/29 00:58:15;;;;;;;7.50;6.90;;;15.90;99.90;;;;;;5053491;28;20232;-58
2021/09/29 01:00:40;;;;;;;10.83;7.87;;;15.80;99.90;;;;;;5053655;28;20565;-59
2021/09/29 01:03:06;;;;;;;8.23;6.53;;;15.80;99.90;;;;;;5052990;28;20206;-57
2021/09/29 01:05:34;;;;;;;7.27;6.67;;;15.80;99.90;;;;;;5053552;28;20244;-58
2021/09/29 01:08:08;;;;;;;7.33;6.63;;;15.80;99.90;;;;;;5053425;28;20169;-59
2021/09/29 01:11:03;;;;;;;7.07;6.47;;;15.80;99.90;;;;;;5053545;28;20943;-58
2021/09/29 01:13:51;;;;;;;7.37;6.67;;;15.80;99.90;;;;;;5053227;28;20419;-58
2021/09/29 01:16:18;;;;;;;7.20;6.60;;;15.80;99.90;;;;;;5053274;28;20939;-59
2021/09/29 01:18:50;;;;;;;7.20;6.50;;;15.80;99.90;;;;;;5052782;28;20451;-58
2021/09/29 01:21:18;;;;;;;7.67;6.97;;;15.80;99.90;;;;;;5053613;28;20400;-55
2021/09/29 01:24:11;;;;;;;8.03;7.27;;;15.80;99.90;;;;;;5053076;28;20429;-55
2021/09/29 01:26:40;;;;;;;8.37;7.50;;;15.70;99.90;;;;;;5056837;28;20437;-58
2021/09/29 01:29:14;;;;;;;11.47;7.13;;;15.70;99.90;;;;;;5059586;28;20487;-58
2021/09/29 01:31:42;;;;;;;8.50;7.17;;;15.60;99.90;;;;;;5060303;28;20407;-54
2021/09/29 01:34:09;;;;;;;8.80;6.77;;;15.60;99.90;;;;;;5057244;28;20407;-55
2021/09/29 01:36:35;;;;;;;7.43;6.83;;;15.50;99.90;;;;;;5056539;28;20937;-58
2021/09/29 01:39:04;;;;;;;8.43;7.53;;;15.50;99.90;;;;;;5057095;28;20478;-59
2021/09/29 01:41:31;;;;;;;7.60;6.90;;;15.50;99.90;;;;;;5057186;28;20411;-57
2021/09/29 01:43:58;;;;;;;11.37;8.00;;;15.50;99.90;;;;;;5056941;28;20396;-58
2021/09/29 01:46:25;;;;;;;8.53;7.73;;;15.40;99.90;;;;;;5056881;28;20796;-56
2021/09/29 01:49:06;;;;;;;7.60;6.80;;;15.40;99.90;;;;;;5056274;28;20452;-58
2021/09/29 01:51:36;;;;;;;7.47;6.73;;;15.50;99.90;;;;;;5056626;28;20487;-55
2021/09/29 01:54:03;;;;;;;8.13;7.43;;;15.50;99.90;;;;;;5056313;28;20804;-55
2021/09/29 01:56:30;;;;;;;9.33;7.40;;;15.50;99.90;;;;;;5056207;28;20896;-54
2021/09/29 01:58:56;;;;;;;12.90;8.73;;;15.60;99.90;;;;;;5056052;28;20484;-55
2021/09/29 02:01:22;;;;;;;8.00;7.20;;;15.60;99.90;;;;;;5056312;28;20407;-54
2021/09/29 02:03:47;;;;;;;11.53;7.53;;;15.70;99.90;;;;;;5055642;28;20449;-55
2021/09/29 02:06:14;;;;;;;10.80;7.90;;;15.80;99.90;;;;;;5056282;28;20399;-58
2021/09/29 02:08:39;;;;;;;7.43;6.73;;;15.80;99.90;;;;;;5052524;28;20174;-55
2021/09/29 02:11:05;;;;;;;8.87;8.03;;;15.80;99.90;;;;;;5043620;28;20426;-57
2021/09/29 02:13:32;;;;;;;8.00;7.17;;;15.90;99.90;;;;;;5055579;28;20428;-56
2021/09/29 02:15:57;;;;;;;7.23;6.53;;;15.90;99.90;;;;;;5056181;28;20304;-55
2021/09/29 02:18:23;;;;;;;8.30;7.40;;;16.00;99.90;;;;;;5055591;28;20543;-54
2021/09/29 02:20:52;;;;;;;7.83;7.13;;;16.00;99.90;;;;;;5055894;28;20170;-55
2021/09/29 02:23:19;;;;;;;8.90;7.23;;;15.90;99.90;;;;;;5056740;28;20183;-58
2021/09/29 02:25:44;;;;;;;8.30;7.50;;;15.90;99.90;;;;;;5055577;28;20412;-59
2021/09/29 02:28:10;;;;;;;9.53;8.10;;;15.80;99.90;;;;;;5055406;28;20506;-59
2021/09/29 02:30:35;;;;;;;8.00;7.23;;;15.90;99.90;;;;;;5055527;28;20166;-58
2021/09/29 02:33:01;;;;;;;7.53;6.83;;;15.80;99.90;;;;;;5055233;28;20657;-59
2021/09/29 02:35:26;;;;;;;9.20;7.23;;;15.80;99.90;;;;;;5055728;28;20180;-58
2021/09/29 02:37:52;;;;;;;7.70;6.50;;;15.80;99.90;;;;;;5054952;28;20242;-59
2021/09/29 02:40:18;;;;;;;7.17;6.57;;;15.80;99.90;;;;;;5055427;28;20653;-58
2021/09/29 02:42:43;;;;;;;8.77;7.90;;;15.80;99.90;;;;;;5055073;28;20191;-57
2021/09/29 02:45:10;;;;;;;9.27;7.60;;;15.80;99.90;;;;;;5054157;28;20173;-57
2021/09/29 02:47:35;;;;;;;8.80;7.37;;;15.80;99.90;;;;;;5054345;28;20165;-57
2021/09/29 02:50:01;;;;;;;7.77;6.97;;;15.80;99.90;;;;;;5055865;28;20771;-58
2021/09/29 02:52:26;;;;;;;6.90;6.30;;;15.90;99.90;;;;;;5055226;28;20190;-58
2021/09/29 02:54:52;;;;;;;8.13;6.37;;;16.00;99.90;;;;;;5055416;28;20214;-57
2021/09/29 02:57:18;;;;;;;7.93;6.70;;;16.00;99.90;;;;;;5055436;28;20590;-58
2021/09/29 02:59:44;;;;;;;7.80;6.57;;;16.10;99.90;;;;;;5054799;28;20566;-55
2021/09/29 03:02:10;;;;;;;6.73;6.13;;;16.00;99.90;;;;;;5055155;28;20206;-56
2021/09/29 03:04:35;;;;;;;9.93;7.10;;;16.00;99.90;;;;;;5054646;28;20442;-58
2021/09/29 03:07:01;;;;;;;7.13;6.40;;;15.90;99.90;;;;;;5056181;28;20186;-57
2021/09/29 03:09:26;;;;;;;9.10;7.10;;;15.90;99.90;;;;;;5055141;28;20207;-58
2021/09/29 03:11:52;;;;;;;9.00;6.90;;;15.80;99.90;;;;;;5054652;28;20244;-57
2021/09/29 03:14:18;;;;;;;7.13;6.53;;;15.80;99.90;;;;;;5055083;28;20666;-56
2021/09/29 03:16:43;;;;;;;7.40;6.70;;;15.70;99.90;;;;;;5054953;28;20271;-54
2021/09/29 03:19:09;;;;;;;6.33;5.67;;;15.60;99.90;;;;;;5054355;28;20194;-56
2021/09/29 03:21:35;;;;;;;10.30;6.93;;;15.70;99.90;;;;;;5054929;28;20177;-58
2021/09/29 03:24:01;;;;;;;7.13;6.53;;;15.60;99.90;;;;;;5055046;28;20446;-58
2021/09/29 03:26:26;;;;;;;8.03;6.67;;;15.60;99.90;;;;;;5054529;28;20165;-58
2021/09/29 03:28:52;;;;;;;7.40;6.70;;;15.60;99.90;;;;;;5053348;28;20585;-56
2021/09/29 03:31:18;;;;;;;7.20;6.50;;;15.50;99.90;;;;;;5054778;28;20281;-58
2021/09/29 03:33:43;;;;;;;7.50;6.70;;;15.50;99.90;;;;;;5054198;28;20574;-55
2021/09/29 03:36:09;;;;;;;8.07;7.23;;;15.50;99.90;;;;;;5054640;28;20688;-57
2021/09/29 03:38:34;;;;;;;7.40;6.67;;;15.40;99.90;;;;;;5054654;28;20242;-56
2021/09/29 03:41:00;;;;;;;12.33;6.63;;;15.30;99.90;;;;;;5053419;28;20176;-58
2021/09/29 03:43:26;;;;;;;5.90;5.40;;;15.40;99.90;;;;;;5054193;28;20572;-57
2021/09/29 03:45:51;;;;;;;6.80;5.93;;;15.40;99.90;;;;;;5054449;28;20251;-56
2021/09/29 03:48:17;;;;;;;7.77;6.97;;;15.40;99.90;;;;;;5053029;28;20180;-57
2021/09/29 03:50:43;;;;;;;7.97;6.57;;;15.50;99.90;;;;;;5054167;28;20220;-56
2021/09/29 03:53:08;;;;;;;6.50;5.80;;;15.50;99.90;;;;;;5054245;28;20186;-57
2021/09/29 03:55:34;;;;;;;6.83;6.20;;;15.40;99.90;;;;;;5054664;28;20250;-56
2021/09/29 03:57:59;;;;;;;7.37;5.40;;;15.30;99.90;;;;;;5054500;28;20668;-57
2021/09/29 04:00:26;;;;;;;6.40;5.83;;;15.40;99.90;;;;;;5054298;28;20224;-57
2021/09/29 04:02:52;;;;;;;7.40;6.70;;;15.40;99.90;;;;;;5076597;22;20417;-58
2021/09/29 04:05:17;;;;;;;5.30;4.50;;;15.50;99.90;;;;;;5052805;28;20902;-58
2021/09/29 04:07:43;;;;;;;8.07;6.27;;;15.50;99.90;;;;;;5054245;28;20178;-59
2021/09/29 04:10:09;;;;;;;7.00;5.80;;;15.40;99.90;;;;;;5053854;28;20169;-59
2021/09/29 04:12:35;;;;;;;6.93;5.47;;;15.50;99.90;;;;;;5048264;28;20190;-59
2021/09/29 04:15:01;;;;;;;6.40;5.80;;;15.40;99.90;;;;;;5053506;28;20404;-59
2021/09/29 04:17:27;;;;;;;5.43;4.93;;;15.50;99.90;;;;;;5053568;28;20491;-61
2021/09/29 04:19:53;;;;;;;5.90;5.30;;;15.60;99.90;;;;;;5053287;28;20243;-60
2021/09/29 04:22:20;;;;;;;5.53;5.03;;;15.50;99.90;;;;;;5053274;28;20178;-59
2021/09/29 04:24:47;;;;;;;5.20;4.80;;;15.60;99.90;;;;;;5053306;28;20450;-58
2021/09/29 04:27:13;;;;;;;7.00;5.57;;;15.50;99.90;;;;;;5052889;28;20983;-58
2021/09/29 04:29:39;;;;;;;6.77;5.97;;;15.50;99.90;;;;;;5053199;28;20428;-59
2021/09/29 04:32:06;;;;;;;6.73;5.97;;;15.50;99.90;;;;;;5051809;28;20470;-60
2021/09/29 04:34:32;;;;;;;5.70;5.20;;;15.60;99.90;;;;;;5052809;28;20830;-60
2021/09/29 04:36:58;;;;;;;11.27;5.50;;;15.60;99.90;;;;;;5053585;28;20458;-60
2021/09/29 04:39:23;;;;;;;6.37;5.57;;;15.70;99.90;;;;;;5052997;28;20193;-60
2021/09/29 04:41:49;;;;;;;6.30;4.23;;;15.60;99.90;;;;;;5052477;28;20785;-59
2021/09/29 04:44:15;;;;;;;5.50;5.07;;;15.70;99.90;;;;;;5053245;28;20224;-60
2021/09/29 04:46:40;;;;;;;5.67;5.10;;;15.70;99.90;;;;;;5052937;28;20458;-60
2021/09/29 04:49:06;;;;;;;4.77;4.37;;;15.60;99.90;;;;;;5052665;28;20169;-58
2021/09/29 04:51:33;;;;;;;6.13;4.80;;;15.70;99.90;;;;;;5052865;28;20168;-60
2021/09/29 04:53:59;;;;;;;5.37;4.27;;;15.50;99.90;;;;;;5052861;28;20179;-60
2021/09/29 04:56:24;;;;;;;7.23;5.20;;;15.50;99.90;;;;;;5052904;28;20415;-60
2021/09/29 04:58:50;;;;;;;5.80;5.30;;;15.50;99.90;;;;;;5052640;28;20192;-60
2021/09/29 05:01:19;;;;;;;5.80;4.97;;;15.40;99.90;;;;;;5057751;28;20652;-60
2021/09/29 05:03:44;;;;;;;4.43;4.00;;;15.30;99.90;;;;;;5046601;28;20582;-60
2021/09/29 05:06:10;;;;;;;8.10;4.57;;;15.30;99.90;;;;;;5059677;28;20407;-60
2021/09/29 05:08:37;;;;;;;4.40;4.00;;;15.30;99.90;;;;;;5059606;28;20581;-60
2021/09/29 05:11:08;;;;;;;4.57;3.90;;;15.10;99.90;;;;;;5059507;28;20170;-59
2021/09/29 05:13:35;;;;;;;5.00;4.50;;;15.10;99.90;;;;;;5059098;28;20923;-59
2021/09/29 05:16:01;;;;;;;4.27;3.87;;;15.20;99.90;;;;;;5059675;28;20459;-60
2021/09/29 05:18:28;;;;;;;6.40;3.80;;;15.20;99.90;;;;;;5059337;28;20449;-61
2021/09/29 05:20:54;;;;;;;5.23;4.40;;;15.20;99.90;;;;;;5059225;28;20442;-61
2021/09/29 05:23:20;;;;;;;4.73;4.00;;;15.20;99.90;;;;;;5059058;28;20510;-59
2021/09/29 05:25:45;;;;;;;3.93;3.40;;;15.00;99.90;;;;;;5059558;28;20465;-59
2021/09/29 05:28:15;;;;;;;4.70;4.30;;;14.90;99.90;;;;;;5058971;28;20416;-59
2021/09/29 05:30:41;;;;;;;8.50;4.10;;;14.90;99.90;;;;;;5056724;28;20168;-57
2021/09/29 05:33:06;;;;;;;7.70;4.70;;;15.00;99.90;;;;;;5049981;28;20451;-60
2021/09/29 05:35:32;;;;;;;4.00;3.70;;;15.10;99.90;;;;;;5059090;28;20169;-60
2021/09/29 05:37:58;;;;;;;5.03;4.07;;;15.10;99.90;;;;;;5059120;28;20675;-60
2021/09/29 05:40:24;;;;;;;4.63;3.80;;;15.00;99.90;;;;;;5059071;28;20494;-58
2021/09/29 05:42:49;;;;;;;4.67;4.13;;;15.10;99.90;;;;;;5059087;28;20656;-59
2021/09/29 05:45:15;;;;;;;4.33;3.90;;;15.00;99.90;;;;;;5058912;28;20637;-59
2021/09/29 05:47:40;;;;;;;6.00;4.20;;;15.00;99.90;;;;;;5058547;28;20169;-57
2021/09/29 05:50:07;;;;;;;7.50;4.10;;;14.90;99.90;;;;;;5057790;28;20195;-58
2021/09/29 05:52:32;;;;;;;5.00;3.97;;;15.00;99.90;;;;;;5058936;28;20189;-60
2021/09/29 05:54:58;;;;;;;4.63;4.03;;;14.90;99.90;;;;;;5059138;28;20411;-60
2021/09/29 05:57:24;;;;;;;4.20;3.80;;;15.00;99.90;;;;;;5058665;28;20171;-59
2021/09/29 05:59:50;;;;;;;5.80;4.20;;;15.00;99.90;;;;;;5059192;28;20208;-59
2021/09/29 06:02:17;;;;;;;4.40;4.07;;;15.00;99.90;;;;;;5058733;28;20176;-59
2021/09/29 06:04:42;;;;;;;7.43;4.07;;;15.10;99.90;;;;;;5058568;28;20408;-60
2021/09/29 06:07:10;;;;;;;4.50;3.60;;;15.10;99.90;;;;;;5059159;28;20399;-60
2021/09/29 06:09:39;;;;;;;4.53;3.80;;;15.00;99.90;;;;;;5059079;28;20204;-60
2021/09/29 06:12:06;;;;;;;3.07;2.87;;;15.00;99.90;;;;;;5056477;28;20416;-60
2021/09/29 06:14:32;;;;;;;6.47;3.20;;;15.00;99.90;;;;;;5044161;28;20419;-60
2021/09/29 06:17:00;;;;;;;4.77;3.83;;;15.10;99.90;;;;;;5035729;28;20490;-60
2021/09/29 06:19:26;;;;;;;6.17;3.80;;;15.30;99.90;;;;;;5035489;28;20519;-60
2021/09/29 06:21:52;;;;;;;5.97;4.27;;;15.40;99.90;;;;;;5035624;28;20422;-61
2021/09/29 06:24:18;;;;;;;6.60;4.63;;;15.50;99.90;;;;;;5035751;28;20425;-61
2021/09/29 06:26:43;;;;;;;4.73;4.07;;;15.80;99.90;;;;;;5036230;28;20171;-60
2021/09/29 06:29:09;;;;;;;4.53;3.20;;;15.90;99.90;;;;;;5035547;28;20204;-60
2021/09/29 06:31:35;;;;;;;4.00;3.50;;;16.10;99.90;;;;;;5035707;28;20642;-59
2021/09/29 06:34:00;;;;;;;4.30;3.20;;;16.20;99.90;;;;;;5035251;28;20201;-60
2021/09/29 06:36:26;;;;;;;3.13;2.60;;;16.00;99.90;;;;;;5035551;28;20219;-60
2021/09/29 06:38:52;;;;;;;4.13;3.53;;;16.00;99.90;;;;;;5035513;28;20287;-61
2021/09/29 06:41:17;;;;;;;3.90;3.27;;;16.10;99.90;;;;;;5035379;28;20177;-61
2021/09/29 06:43:43;;;;;;;4.30;3.60;;;16.00;99.90;;;;;;5050013;28;20903;-61
2021/09/29 06:46:08;;;;;;;3.77;3.10;;;16.10;99.90;;;;;;5054972;28;20516;-61
2021/09/29 06:48:34;;;;;;;4.13;3.63;;;15.90;99.90;;;;;;5055100;28;20566;-61
2021/09/29 06:51:00;;;;;;;3.83;3.43;;;15.80;99.90;;;;;;5055013;28;20638;-61
2021/09/29 06:53:25;;;;;;;4.80;4.30;;;15.70;99.90;;;;;;5054941;28;20197;-60
2021/09/29 06:55:51;;;;;;;5.13;3.50;;;15.70;99.90;;;;;;5054725;28;20175;-60
2021/09/29 06:58:18;;;;;;;3.70;3.40;;;15.70;99.90;;;;;;5053358;28;20207;-61
2021/09/29 07:00:44;;;;;;;5.20;3.63;;;15.80;99.90;;;;;;5054910;28;20181;-61
2021/09/29 07:03:09;;;;;;;4.10;3.70;;;15.90;99.90;;;;;;5054106;28;20599;-60
2021/09/29 07:05:35;;;;;;;4.53;4.13;;;16.00;99.90;;;;;;5054812;28;20446;-60
2021/09/29 07:08:01;;;;;;;5.60;4.40;;;16.00;99.90;;;;;;5054544;28;20198;-59
2021/09/29 07:10:28;;;;;;;3.57;2.80;;;16.00;99.90;;;;;;5054690;28;20206;-59
2021/09/29 07:12:57;;;;;;;4.53;3.43;;;16.00;99.90;;;;;;5054407;28;20609;-61
2021/09/29 07:15:23;;;;;;;3.93;3.03;;;16.10;99.90;;;;;;5054504;28;20441;-61
2021/09/29 07:17:51;;;;;;;3.60;3.00;;;16.20;99.90;;;;;;5054089;28;20447;-61
2021/09/29 07:20:17;;;;;;;6.20;3.40;;;16.30;99.90;;;;;;5054324;28;20484;-61
2021/09/29 07:22:42;;;;;;;3.37;2.90;;;16.30;99.90;;;;;;5054021;28;20440;-61
2021/09/29 07:25:09;;;;;;;6.60;3.77;;;16.40;99.90;;;;;;5053137;28;20212;-61
2021/09/29 07:27:34;;;;;;;5.40;2.87;;;16.40;99.90;;;;;;5054127;28;20174;-60
2021/09/29 07:30:00;;;;;;;5.73;3.13;;;16.50;99.90;;;;;;5054375;28;20430;-61
2021/09/29 07:32:26;;;;;;;3.50;2.97;;;16.40;99.90;;;;;;5054283;28;20251;-61
2021/09/29 07:34:51;;;;;;;6.60;3.10;;;16.60;99.90;;;;;;5053716;28;20170;-61
2021/09/29 07:37:17;;;;;;;2.87;2.57;;;16.70;99.90;;;;;;5054297;28;20647;-61
2021/09/29 07:39:45;;;;;;;3.60;2.23;;;16.70;99.90;;;;;;5054382;28;20203;-59
2021/09/29 07:42:10;;;;;;;3.33;2.43;;;16.70;99.90;;;;;;5054086;28;20188;-61
2021/09/29 07:44:36;;;;;;;4.83;2.67;;;16.60;99.90;;;;;;5053817;28;20404;-61
2021/09/29 07:47:02;;;;;;;3.40;2.30;;;16.40;99.90;;;;;;5054117;28;20202;-61
2021/09/29 07:49:27;;;;;;;2.53;1.93;;;16.70;99.90;;;;;;5053686;28;20228;-60
2021/09/29 07:51:53;;;;;;;8.93;2.87;;;16.60;99.90;;;;;;5053803;28;20171;-61
2021/09/29 07:54:19;;;;;;;5.23;2.07;;;16.80;99.90;;;;;;5054073;28;20275;-61
2021/09/29 07:56:45;;;;;;;4.47;1.87;;;16.70;99.90;;;;;;5054390;28;20451;-61
2021/09/29 07:59:10;;;;;;;4.93;2.43;;;16.90;99.90;;;;;;5053810;28;20451;-61
2021/09/29 08:01:36;;;;;;;2.93;1.90;;;16.90;99.90;;;;;;5053829;28;20194;-61
2021/09/29 08:04:02;;;;;;;3.43;2.00;;;16.90;99.90;;;;;;5052874;28;20213;-61
2021/09/29 08:06:28;;;;;;;5.40;1.83;;;16.90;99.90;;;;;;5050701;28;20212;-61
2021/09/29 08:08:54;;;;;;;2.33;1.50;;;16.90;99.90;;;;;;5044866;28;20228;-61
2021/09/29 08:11:20;;;;;;;1.90;1.70;;;17.00;99.90;;;;;;5045350;28;20416;-59
2021/09/29 08:13:45;;;;;;;2.90;1.40;;;17.10;99.90;;;;;;5053227;28;20740;-61
2021/09/29 08:16:11;;;;;;;1.97;1.70;;;17.20;99.90;;;;;;5053777;28;20539;-61
2021/09/29 08:18:36;;;;;;;2.80;1.77;;;17.40;99.90;;;;;;5053287;28;20194;-61
2021/09/29 08:21:05;;;;;;;5.83;1.90;;;17.50;99.90;;;;;;5053374;28;20249;-61
2021/09/29 08:23:34;;;;;;;2.10;1.57;;;17.40;99.90;;;;;;5052499;28;20251;-61
2021/09/29 08:31:36;;;;;;;1.87;1.20;;;17.30;99.90;;;;;;5053224;28;20567;-60
2021/09/29 08:34:16;;;;;;;3.90;1.57;;;17.40;99.90;;;;;;5052862;28;20941;-61
2021/09/29 08:39:26;;;;;;;3.80;1.90;;;17.40;99.90;;;;;;5053281;28;20451;-59
2021/09/29 08:42:38;;;;;;;4.30;1.83;;;17.50;99.90;;;;;;5053362;28;20390;-59
2021/09/29 08:44:51;;;;;;;4.50;1.83;;;17.60;99.90;;;;;;5044651;28;20428;-59
2021/09/29 08:47:36;;;;;;;2.07;1.80;;;17.60;99.90;;;;;;5053420;28;20409;-59
2021/09/29 09:16:59;;;;;;;3.10;1.37;;;18.60;99.90;;;;;;5052645;28;20399;-60
2021/09/29 09:19:29;;;;;;;3.20;1.40;;;18.70;99.90;;;;;;5052773;28;20459;-60
2021/09/29 09:22:02;;;;;;;5.07;1.50;;;18.90;99.90;;;;;;5052886;28;20480;-60
2021/09/29 09:24:31;;;;;;;2.50;1.40;;;18.90;99.90;;;;;;5052584;28;20432;-60
2021/09/29 09:27:07;;;;;;;2.93;1.40;;;18.90;99.90;;;;;;5052435;28;20467;-60
2021/09/29 09:29:44;;;;;;;3.50;1.67;;;18.90;99.90;;;;;;5051493;28;20420;-59
2021/09/29 09:32:12;;;;;;;4.63;1.80;;;18.90;99.90;;;;;;5052142;28;20417;-59
2021/09/29 09:34:38;;;;;;;4.17;1.43;;;18.90;99.90;;;;;;5052683;28;20498;-60
2021/09/29 09:37:15;;;;;;;2.90;1.37;;;19.20;99.90;;;;;;5052314;28;20416;-60
2021/09/29 09:39:43;;;;;;;2.07;1.40;;;19.40;99.90;;;;;;5052324;28;20468;-59
2021/09/29 09:42:09;;;;;;;2.23;1.20;;;19.40;99.90;;;;;;5052095;28;20890;-60
2021/09/29 09:44:37;;;;;;;3.80;1.30;;;19.40;99.90;;;;;;5051853;28;20435;-60
2021/09/29 09:47:12;;;;;;;2.50;1.00;;;19.50;99.90;;;;;;5052993;28;20769;-59
2021/09/29 09:49:55;;;;;;;3.63;1.40;;;19.70;99.90;;;;;;5056186;28;20408;-60
2021/09/29 09:52:37;;;;;;;3.57;1.47;;;19.60;99.90;;;;;;5056004;28;20423;-60
2021/09/29 09:55:09;;;;;;;1.53;1.23;;;19.60;99.90;;;;;;5056064;28;20404;-57
2021/09/29 09:57:38;;;;;;;1.70;0.93;;;19.60;99.90;;;;;;5055680;28;20441;-59
2021/09/29 10:00:07;;;;;;;2.10;1.27;;;19.50;99.90;;;;;;5055720;28;20460;-60
2021/09/29 10:02:39;;;;;;;2.47;1.40;;;19.40;99.90;;;;;;5054991;28;20551;-60
2021/09/29 10:05:05;;;;;;;4.57;1.60;;;19.50;99.90;;;;;;5057404;28;20385;-60
2021/09/29 10:07:31;;;;;;;2.17;1.10;;;19.60;99.90;;;;;;5055572;28;20488;-61
2021/09/29 10:10:11;;;;;;;2.77;1.00;;;19.60;99.90;;;;;;5055649;28;20261;-61
2021/09/29 10:26:24;;;;;;;3.60;1.30;;;20.30;99.90;;;;;;5035373;28;20448;-58
2021/09/29 10:29:00;;;;;;;2.03;1.17;;;20.50;99.90;;;;;;5047468;28;20186;-60
2021/09/29 10:34:27;;;;;;;4.03;1.53;;;20.10;99.90;;;;;;5054883;28;21024;-59
2021/09/29 10:37:49;;;;;;;2.77;1.20;;;20.00;99.90;;;;;;5055592;28;20488;-60
2021/09/29 10:48:25;;;;;;;2.83;1.40;;;19.80;99.90;;;;;;5054841;28;20476;-60
2021/09/29 11:05:43;;;;;;;4.30;1.50;;;20.50;99.90;;;;;;5055212;28;20401;-60
2021/09/29 11:30:41;;;;;;;2.53;1.20;;;26.30;94.20;;;;;;5054479;28;20863;-60
2021/09/29 11:35:51;;;;;;;1.50;1.07;;;26.30;91.00;;;;;;5054567;28;20409;-60
2021/09/29 11:38:55;;;;;;;1.30;0.83;;;27.00;91.00;;;;;;5054463;28;20225;-60
2021/09/29 12:09:03;;;;;;;1.60;1.07;;;24.10;87.60;;;;;;5054665;28;20899;-59
2021/09/29 12:11:30;;;;;;;2.50;1.00;;;24.10;89.50;;;;;;5053617;28;20373;-59
2021/09/29 12:14:00;;;;;;;2.43;0.90;;;23.90;88.80;;;;;;5052978;28;20417;-61
2021/09/29 12:16:29;;;;;;;3.90;1.03;;;24.90;86.10;;;;;;5053389;28;20410;-61
2021/09/29 12:18:59;;;;;;;1.30;0.80;;;25.70;83.80;;;;;;5050801;28;20471;-61
2021/09/29 12:21:51;;;;;;;2.80;1.23;;;26.70;82.30;;;;;;5033764;28;20423;-61
2021/09/29 12:24:26;;;;;;;1.63;0.80;;;28.60;75.80;;;;;;5033249;28;20922;-61
2021/09/29 12:26:54;;;;;;;1.43;0.80;;;30.00;71.30;;;;;;5033220;28;20409;-61
2021/09/29 12:29:32;;;;;;;2.50;1.23;;;28.30;72.80;;;;;;5032819;28;20410;-61
2021/09/29 12:38:02;;;;;;;3.57;1.20;;;27.20;73.20;;;;;;4994589;28;20432;-61
2021/09/29 12:40:33;;;;;;;2.13;0.90;;;26.40;76.10;;;;;;5033292;28;20398;-61
2021/09/29 12:43:19;;;;;;;2.93;1.17;;;25.10;79.00;;;;;;5033427;28;20459;-59
2021/09/29 12:45:48;;;;;;;1.73;0.80;;;23.70;82.30;;;;;;5033350;28;20393;-60
2021/09/29 12:48:17;;;;;;;3.13;1.07;;;23.30;86.40;;;;;;5046316;28;20417;-60
2021/09/29 12:56:17;;;;;;;2.00;1.13;;;22.90;85.30;;;;;;5054490;28;20392;-60
2021/09/29 12:58:43;;;;;;;1.90;1.17;;;22.60;87.00;;;;;;5053056;28;20999;-60
2021/09/29 13:01:09;;;;;;;2.70;1.30;;;22.30;90.20;;;;;;5053363;28;20776;-61
2021/09/29 13:03:34;;;;;;;5.27;3.03;;;21.90;89.80;;;;;;5052410;28;20460;-60
2021/09/29 13:06:00;;;;;;;3.67;1.73;;;21.40;91.00;;;;;;5052650;28;20242;-60
2021/09/29 13:08:27;;;;;;;4.20;2.90;;;21.20;91.00;;;;;;5052973;28;20174;-59
2021/09/29 13:10:53;;;;;;;3.30;1.27;;;21.20;92.20;;;;;;5052921;28;20228;-60
2021/09/29 13:13:20;;;;;;;3.33;2.10;;;22.80;90.60;;;;;;5052476;28;20479;-60
2021/09/29 13:15:49;;;;;;;2.50;1.47;;;22.80;90.20;;;;;;5052886;28;20491;-59
2021/09/29 13:18:21;;;;;;;4.67;1.10;;;23.90;90.00;;;;;;5052786;28;20954;-61
2021/09/29 13:20:54;;;;;;;2.47;1.27;;;25.60;85.70;;;;;;5053108;28;20786;-61
2021/09/29 13:23:27;;;;;;;1.63;0.80;;;27.80;81.20;;;;;;5056661;28;20796;-61
2021/09/29 13:36:49;;;;;;;2.80;1.67;;;21.70;92.30;;;;;;5056754;28;20377;-59
2021/09/29 13:39:18;;;;;;;4.80;1.27;;;20.80;95.00;;;;;;5056828;28;20452;-61
2021/09/29 13:41:45;;;;;;;1.30;1.07;;;20.00;98.50;;;;;;5056348;28;20165;-59
2021/09/29 13:44:12;;;;;;;3.80;1.53;;;19.80;99.90;;;;;;5055837;28;20511;-60
2021/09/29 13:46:39;;;;;;;2.27;1.17;;;19.40;99.90;;;;;;5056170;28;20979;-61
2021/09/29 13:49:07;;;;;;;3.27;1.47;;;19.00;99.90;;;;;;5055493;28;20482;-61
2021/09/29 13:51:37;;;;;;;7.20;2.23;;;18.80;99.90;;;;;;5056462;28;20401;-61
2021/09/29 13:54:37;;;;;;;2.60;1.20;;;18.90;99.90;;;;;;5056472;28;20801;-61
2021/09/29 14:29:53;;;;;;;3.30;1.10;;;18.30;99.90;;;;;;5035356;28;20462;-61
2021/09/29 14:32:28;;;;;;;1.00;0.77;;;18.10;99.90;;;;;;5035610;28;20397;-61
2021/09/29 14:34:53;;;;;;;1.93;0.70;;;17.80;99.90;;;;;;5035661;28;20790;-61
2021/09/29 14:37:19;;;;;;;3.23;0.60;;;16.90;99.90;;;;;;5035339;28;20464;-62
2021/09/29 14:39:45;;;;;;;1.50;0.90;;;16.50;99.90;;;;;;5036165;28;20190;-61
2021/09/29 14:42:11;;;;;;;1.07;0.80;;;16.40;99.90;;;;;;5035664;28;20178;-61
2021/09/29 14:44:37;;;;;;;0.80;0.60;;;16.30;99.90;;;;;;5039131;28;20916;-61
2021/09/29 14:47:12;;;;;;;1.07;0.90;;;16.00;99.90;;;;;;5055446;28;20168;-60
2021/09/29 14:49:40;;;;;;;1.00;0.70;;;16.00;99.90;;;;;;5055151;28;20424;-61
2021/09/29 14:52:06;;;;;;;1.03;0.60;;;16.00;99.90;;;;;;5054635;28;20414;-60
2021/09/29 14:54:32;;;;;;;2.80;0.87;;;16.00;99.90;;;;;;5055213;28;20415;-59
2021/09/29 14:56:58;;;;;;;1.10;0.80;;;16.00;99.90;;;;;;5055398;28;20407;-58
2021/09/29 14:59:23;;;;;;;0.80;0.57;;;15.90;99.90;;;;;;5054458;28;20197;-60
2021/09/29 15:01:49;;;;;;;1.17;0.77;;;15.90;99.90;;;;;;5054938;28;20173;-61
2021/09/29 15:04:15;;;;;;;1.40;0.63;;;16.00;99.90;;;;;;5054595;28;20195;-62
2021/09/29 15:06:40;;;;;;;0.93;0.63;;;15.90;99.90;;;;;;5055099;28;20528;-61
2021/09/29 15:09:06;;;;;;;1.80;0.70;;;15.80;99.90;;;;;;5054626;28;20170;-62
2021/09/29 15:11:32;;;;;;;2.30;0.80;;;15.80;99.90;;;;;;5054689;28;20177;-62
2021/09/29 15:14:06;;;;;;;1.20;0.83;;;15.90;99.90;;;;;;5054027;28;20283;-62
2021/09/29 15:16:56;;;;;;;0.90;0.70;;;16.00;99.90;;;;;;5034576;28;20384;-60
2021/09/29 15:29:57;;;;;;;0.90;0.60;;;15.60;99.90;;;;;;5034044;28;20213;-57
2021/09/29 15:48:47;;;;;;;0.93;0.80;;;15.50;99.90;;;;;;5054770;28;20767;-61
2021/09/29 15:51:21;;;;;;;2.13;0.70;;;15.50;99.90;;;;;;5053739;28;20384;-61
2021/09/29 15:59:03;;;;;;;3.00;0.80;;;16.00;99.90;;;;;;5053361;28;20884;-61
2021/09/29 16:09:35;;;;;;;2.30;1.20;;;16.00;99.90;;;;;;5034446;28;20385;-56
2021/09/29 16:23:10;;;;;;;1.03;0.93;;;16.00;99.90;;;;;;5014023;28;20392;-57
2021/09/29 16:31:12;;;;;;;1.10;1.00;;;16.00;99.90;;;;;;5014542;28;20386;-57
2021/09/29 16:36:12;;;;;;;2.60;1.00;;;15.80;99.90;;;;;;5021527;28;20416;-57
2021/09/29 16:38:40;;;;;;;1.60;1.50;;;15.80;99.90;;;;;;5033370;28;20971;-56
2021/09/29 16:41:06;;;;;;;1.97;0.80;;;15.80;99.90;;;;;;5033335;28;20778;-56
2021/09/29 16:43:33;;;;;;;1.33;1.10;;;15.60;99.90;;;;;;5033291;28;20421;-55
2021/09/29 16:45:59;;;;;;;1.33;0.77;;;15.70;99.90;;;;;;5033583;28;20188;-57
2021/09/29 16:48:27;;;;;;;1.37;0.97;;;15.80;99.90;;;;;;5033593;28;20442;-53
2021/09/29 16:53:45;;;;;;;1.83;0.73;;;16.10;99.90;;;;;;5033435;28;20395;-58
2021/09/29 16:56:12;;;;;;;1.57;0.80;;;16.00;99.90;;;;;;5033093;28;20406;-57